createdAt,value
2019-05-20T00:03:47.888Z,31.76
2019-05-20T00:08:54.134Z,54.79
2019-05-20T00:14:00.341Z,27.74
2019-05-20T00:19:06.482Z,26.86
2019-05-20T00:24:12.827Z,27.85
2019-05-20T00:29:19.058Z,28.06
2019-05-20T00:34:34.717Z,25.52
2019-05-20T00:39:31.479Z,25.09
2019-05-20T00:44:37.619Z,28.91
2019-05-20T00:49:43.905Z,27.45
2019-05-20T00:54:50.088Z,24.74
2019-05-20T00:59:56.401Z,27.53
2019-05-20T01:05:02.547Z,22.52
2019-05-20T01:10:08.808Z,20.68
2019-05-20T01:15:15.024Z,18.25
2019-05-20T01:20:21.348Z,19.30
2019-05-20T01:25:27.603Z,17.81
2019-05-20T01:30:33.990Z,17.84
2019-05-20T01:35:40.293Z,18.85
2019-05-20T01:40:46.696Z,17.15
2019-05-20T01:45:54.407Z,18.12
2019-05-20T01:51:00.699Z,18.59
2019-05-20T01:56:06.794Z,17.24
2019-05-20T02:01:13.005Z,17.38
2019-05-20T02:06:19.180Z,17.82
2019-05-20T02:11:25.544Z,19.21
2019-05-20T02:16:31.793Z,20.02
2019-05-20T02:21:38.528Z,18.58
2019-05-20T02:26:44.700Z,20.12
2019-05-20T02:31:50.942Z,19.51
2019-05-20T02:36:57.260Z,20.81
2019-05-20T02:42:03.625Z,19.79
2019-05-20T02:47:09.696Z,22.89
2019-05-20T02:52:16.069Z,20.45
2019-05-20T02:57:22.221Z,17.70
2019-05-20T03:02:28.294Z,21.19
2019-05-20T03:07:34.359Z,19.89
2019-05-20T03:12:40.709Z,19.21
2019-05-20T03:17:46.866Z,17.68
2019-05-20T03:22:53.246Z,17.89
2019-05-20T03:27:59.513Z,16.01
2019-05-20T03:33:05.834Z,16.96
2019-05-20T03:38:12.010Z,16.97
2019-05-20T03:43:18.129Z,16.18
2019-05-20T03:48:24.325Z,16.55
2019-05-20T03:53:30.477Z,17.32
2019-05-20T03:58:36.682Z,16.39
2019-05-20T04:03:42.716Z,16.55
2019-05-20T04:08:49.010Z,16.53
2019-05-20T04:13:55.110Z,14.78
2019-05-20T04:19:01.230Z,14.53
2019-05-20T04:24:07.344Z,13.35
2019-05-20T04:29:13.443Z,12.60
2019-05-20T04:34:19.597Z,12.75
2019-05-20T04:39:25.656Z,13.24
2019-05-20T04:44:31.710Z,12.99
2019-05-20T04:49:37.805Z,13.38
2019-05-20T04:54:43.963Z,14.45
2019-05-20T04:59:50.012Z,14.47
2019-05-20T05:04:56.110Z,13.83
2019-05-20T05:10:02.180Z,12.59
2019-05-20T05:15:08.414Z,13.24
2019-05-20T05:20:17.851Z,15.25
2019-05-20T05:25:15.424Z,15.05
2019-05-20T05:30:21.951Z,14.23
2019-05-20T05:35:28.220Z,15.22
2019-05-20T05:40:34.492Z,16.14
2019-05-20T05:45:40.915Z,15.22
2019-05-20T05:50:47.153Z,14.15
2019-05-20T05:55:53.543Z,13.68
2019-05-20T06:00:59.969Z,13.74
2019-05-20T06:06:12.354Z,14.20
2019-05-20T06:11:09.600Z,12.97
2019-05-20T06:16:16.014Z,13.16
2019-05-20T06:21:22.473Z,19.85
2019-05-20T06:26:28.796Z,14.83
2019-05-20T06:31:35.104Z,13.60
2019-05-20T06:36:41.446Z,19.01
2019-05-20T06:41:48.713Z,17.27
2019-05-20T06:46:55.101Z,14.48
2019-05-20T06:52:01.477Z,12.51
2019-05-20T06:57:08.149Z,14.29
2019-05-20T07:02:14.571Z,10.40
2019-05-20T07:07:21.525Z,9.90
2019-05-20T07:12:40.667Z,10.07
2019-05-20T07:17:34.428Z,8.96
2019-05-20T07:22:55.325Z,8.45
2019-05-20T07:27:48.172Z,9.72
2019-05-20T07:32:54.540Z,10.30
2019-05-20T07:38:01.215Z,10.55
2019-05-20T07:43:07.561Z,10.95
2019-05-20T07:48:14.056Z,10.64
2019-05-20T07:53:20.309Z,11.49
2019-05-20T07:58:26.856Z,11.84
2019-05-20T08:03:33.234Z,10.64
2019-05-20T08:08:41.390Z,11.39
2019-05-20T08:13:47.662Z,10.52
2019-05-20T08:18:55.782Z,10.82
2019-05-20T08:24:02.365Z,10.37
2019-05-20T08:29:09.075Z,11.73
2019-05-20T08:34:15.553Z,9.56
2019-05-20T08:39:22.245Z,8.86
2019-05-20T08:44:28.752Z,9.16
2019-05-20T08:49:35.236Z,8.93
2019-05-20T08:54:41.863Z,8.25
2019-05-20T08:59:48.419Z,8.65
2019-05-20T09:04:54.865Z,8.17
2019-05-20T09:10:01.485Z,8.20
2019-05-20T09:15:07.865Z,8.20
2019-05-20T09:20:14.423Z,9.38
2019-05-20T09:25:20.604Z,9.56
2019-05-20T09:30:27.176Z,9.27
2019-05-20T09:35:33.433Z,8.42
2019-05-20T09:40:40.011Z,9.38
2019-05-20T09:45:46.367Z,8.59
2019-05-20T09:50:52.994Z,9.13
2019-05-20T09:55:59.347Z,8.46
2019-05-20T10:01:05.804Z,9.30
2019-05-20T10:06:12.071Z,9.74
2019-05-20T10:11:19.401Z,8.99
2019-05-20T10:16:25.907Z,8.74
2019-05-20T10:21:33.364Z,10.83
2019-05-20T10:26:39.948Z,9.95
2019-05-20T10:31:46.326Z,8.99
2019-05-20T10:36:52.454Z,9.17
2019-05-20T10:41:58.872Z,10.43
2019-05-20T10:47:05.184Z,11.03
2019-05-20T10:52:13.156Z,11.17
2019-05-20T10:57:19.530Z,14.67
2019-05-20T11:02:31.013Z,12.96
2019-05-20T11:07:27.476Z,12.34
2019-05-20T11:12:33.827Z,14.09
2019-05-20T11:17:40.135Z,11.87
2019-05-20T11:22:46.614Z,12.56
2019-05-20T11:27:52.930Z,14.02
2019-05-20T11:32:59.405Z,12.66
2019-05-20T11:38:05.636Z,12.78
2019-05-20T11:43:12.055Z,12.94
2019-05-20T11:48:18.304Z,14.96
2019-05-20T11:53:24.684Z,13.03
2019-05-20T11:58:31.128Z,13.47
2019-05-20T12:03:37.604Z,12.53
2019-05-20T12:08:43.907Z,18.01
2019-05-20T12:13:50.181Z,13.77
2019-05-20T12:18:56.748Z,12.56
2019-05-20T12:24:03.055Z,12.28
2019-05-20T12:29:09.613Z,12.03
2019-05-20T12:34:15.776Z,12.09
2019-05-20T12:39:21.969Z,11.77
2019-05-20T12:44:29.318Z,14.12
2019-05-20T12:49:35.666Z,13.10
2019-05-20T12:54:42.123Z,14.79
2019-05-20T12:59:48.666Z,14.70
2019-05-20T13:04:55.089Z,11.78
2019-05-20T13:10:02.977Z,12.86
2019-05-20T13:15:10.160Z,11.84
2019-05-20T13:20:16.451Z,10.70
2019-05-20T13:25:22.939Z,11.49
2019-05-20T13:30:29.156Z,13.39
2019-05-20T13:35:35.615Z,10.60
2019-05-20T13:40:46.565Z,11.60
2019-05-20T13:45:47.616Z,11.93
2019-05-20T13:50:44.736Z,12.22
2019-05-20T13:55:51.085Z,12.82
2019-05-20T14:00:57.417Z,14.68
2019-05-20T14:06:03.929Z,14.40
2019-05-20T14:11:12.127Z,13.31
2019-05-20T14:16:18.353Z,13.60
2019-05-20T14:21:25.343Z,13.80
2019-05-20T14:26:31.640Z,13.82
2019-05-20T14:31:37.865Z,15.94
2019-05-20T14:36:44.263Z,15.97
2019-05-20T14:41:50.838Z,13.58
2019-05-20T14:46:57.251Z,15.68
2019-05-20T14:52:03.496Z,15.37
2019-05-20T14:57:09.945Z,14.21
2019-05-20T15:02:16.302Z,15.39
2019-05-20T15:07:29.994Z,14.72
2019-05-20T15:12:27.215Z,15.43
2019-05-20T15:17:33.739Z,16.22
2019-05-20T15:22:39.987Z,17.00
2019-05-20T15:27:49.327Z,13.83
2019-05-20T15:32:56.351Z,14.35
2019-05-20T15:38:02.840Z,14.83
2019-05-20T15:43:09.124Z,14.96
2019-05-20T15:48:15.420Z,14.84
2019-05-20T15:53:21.754Z,18.95
2019-05-20T15:58:28.548Z,16.87
2019-05-20T16:03:34.845Z,18.80
2019-05-20T16:08:41.130Z,15.58
2019-05-20T16:13:47.535Z,14.45
2019-05-20T16:18:53.801Z,13.50
2019-05-20T16:24:00.065Z,15.05
2019-05-20T16:29:06.601Z,12.59
2019-05-20T16:34:13.334Z,13.72
2019-05-20T16:39:19.480Z,15.24
2019-05-20T16:44:29.011Z,13.11
2019-05-20T16:49:37.099Z,12.05
2019-05-20T16:54:45.050Z,13.58
2019-05-20T16:59:54.252Z,14.53
2019-05-20T17:05:00.874Z,12.36
2019-05-20T17:10:07.513Z,16.94
2019-05-20T17:15:14.297Z,14.23
2019-05-20T17:20:20.791Z,15.43
2019-05-20T17:25:28.764Z,12.62
2019-05-20T17:30:44.976Z,15.09
2019-05-20T17:35:42.530Z,11.24
2019-05-20T17:40:49.426Z,12.11
2019-05-20T17:45:55.582Z,11.43
2019-05-20T17:51:02.159Z,15.38
2019-05-20T17:56:08.799Z,12.43
2019-05-20T18:01:16.187Z,11.36
2019-05-20T18:06:23.226Z,16.16
2019-05-20T18:11:29.592Z,14.30
2019-05-20T18:16:37.944Z,10.64
2019-05-20T18:21:44.498Z,15.28
2019-05-20T18:26:55.222Z,11.28
2019-05-20T18:32:01.727Z,11.57
2019-05-20T18:36:58.008Z,12.74
2019-05-20T18:42:04.860Z,11.52
2019-05-20T18:47:11.352Z,11.25
2019-05-20T18:52:17.774Z,10.63
2019-05-20T18:57:23.947Z,11.64
2019-05-20T19:02:33.441Z,12.33
2019-05-20T19:07:39.930Z,12.56
2019-05-20T19:12:46.516Z,13.34
2019-05-20T19:17:53.239Z,14.16
2019-05-20T19:22:59.687Z,11.57
2019-05-20T19:28:06.643Z,14.06
2019-05-20T19:33:13.365Z,12.98
2019-05-20T19:38:22.355Z,12.33
2019-05-20T19:43:28.601Z,12.81
2019-05-20T19:48:35.320Z,12.64
2019-05-20T19:53:41.921Z,12.11
2019-05-20T19:58:49.017Z,12.00
2019-05-20T20:04:00.097Z,12.36
2019-05-20T20:08:56.404Z,12.20
2019-05-20T20:14:02.659Z,12.59
2019-05-20T20:19:09.482Z,11.82
2019-05-20T20:24:19.119Z,11.31
2019-05-20T20:29:25.486Z,9.69
2019-05-20T20:34:45.659Z,8.61
2019-05-20T20:39:40.101Z,9.15
2019-05-20T20:44:36.861Z,8.76
2019-05-20T20:49:44.031Z,9.47
2019-05-20T20:54:50.874Z,7.54
2019-05-20T20:59:57.212Z,6.51
2019-05-20T21:05:03.515Z,6.80
2019-05-20T21:10:09.861Z,5.53
2019-05-20T21:15:16.395Z,6.15
2019-05-20T21:20:22.825Z,6.36
2019-05-20T21:25:36.693Z,5.79
2019-05-20T21:30:33.032Z,6.28
2019-05-20T21:35:39.231Z,5.72
2019-05-20T21:40:45.470Z,6.76
2019-05-20T21:45:51.901Z,5.89
2019-05-20T21:51:03.166Z,5.60
2019-05-20T21:56:00.693Z,6.23
2019-05-20T22:01:07.157Z,5.56
2019-05-20T22:06:14.019Z,5.22
2019-05-20T22:11:20.292Z,5.29
2019-05-20T22:16:29.663Z,5.51
2019-05-20T22:21:43.445Z,5.98
2019-05-20T22:26:45.463Z,5.64
2019-05-20T22:31:41.792Z,7.05
2019-05-20T22:36:52.768Z,5.30
2019-05-20T22:41:52.758Z,5.75
2019-05-20T22:46:59.111Z,5.79
2019-05-20T22:52:05.940Z,6.58
2019-05-20T22:57:12.298Z,6.48
2019-05-20T23:02:18.513Z,5.49
2019-05-20T23:07:24.966Z,5.76
2019-05-20T23:12:31.444Z,7.12
2019-05-20T23:17:37.997Z,5.79
2019-05-20T23:22:44.231Z,5.72
2019-05-20T23:27:51.818Z,6.12
2019-05-20T23:32:58.360Z,5.75
2019-05-20T23:38:16.339Z,6.18
2019-05-20T23:43:15.825Z,6.47
2019-05-20T23:48:25.006Z,6.62
2019-05-20T23:53:31.095Z,5.75
2019-05-20T23:58:38.257Z,5.40
